sensor_id;sensor_type;location;lat;lon;timestamp;P1;durP1;ratioP1;P2;durP2;ratioP2
10471;SDS011;5283;48.876;8.962;2022-10-31T00:01:08;13.93;;;9.17;;
10471;SDS011;5283;48.876;8.962;2022-10-31T00:03:36;10.23;;;8.37;;
10471;SDS011;5283;48.876;8.962;2022-10-31T00:06:03;13.30;;;8.53;;
10471;SDS011;5283;48.876;8.962;2022-10-31T00:08:29;11.47;;;9.37;;
10471;SDS011;5283;48.876;8.962;2022-10-31T00:10:56;15.43;;;9.50;;
10471;SDS011;5283;48.876;8.962;2022-10-31T00:13:23;13.90;;;9.17;;
10471;SDS011;5283;48.876;8.962;2022-10-31T00:15:49;14.77;;;10.23;;
10471;SDS011;5283;48.876;8.962;2022-10-31T00:18:16;15.53;;;11.03;;
10471;SDS011;5283;48.876;8.962;2022-10-31T00:20:42;14.73;;;9.83;;
10471;SDS011;5283;48.876;8.962;2022-10-31T00:23:09;16.40;;;10.30;;
10471;SDS011;5283;48.876;8.962;2022-10-31T00:25:38;17.70;;;10.03;;
10471;SDS011;5283;48.876;8.962;2022-10-31T00:28:06;17.37;;;10.40;;
10471;SDS011;5283;48.876;8.962;2022-10-31T00:30:33;14.87;;;9.80;;
10471;SDS011;5283;48.876;8.962;2022-10-31T00:33:00;15.20;;;9.57;;
10471;SDS011;5283;48.876;8.962;2022-10-31T00:35:29;14.33;;;9.60;;
10471;SDS011;5283;48.876;8.962;2022-10-31T00:37:56;14.97;;;9.37;;
10471;SDS011;5283;48.876;8.962;2022-10-31T00:40:22;15.17;;;8.97;;
10471;SDS011;5283;48.876;8.962;2022-10-31T00:42:49;14.27;;;9.20;;
10471;SDS011;5283;48.876;8.962;2022-10-31T00:45:16;14.17;;;9.63;;
10471;SDS011;5283;48.876;8.962;2022-10-31T00:47:42;16.23;;;9.70;;
10471;SDS011;5283;48.876;8.962;2022-10-31T00:50:09;13.77;;;9.27;;
10471;SDS011;5283;48.876;8.962;2022-10-31T00:52:36;13.00;;;9.23;;
10471;SDS011;5283;48.876;8.962;2022-10-31T00:55:02;14.77;;;9.87;;
10471;SDS011;5283;48.876;8.962;2022-10-31T00:57:29;13.37;;;9.43;;
10471;SDS011;5283;48.876;8.962;2022-10-31T00:59:56;15.30;;;9.13;;
10471;SDS011;5283;48.876;8.962;2022-10-31T01:02:22;14.00;;;10.00;;
10471;SDS011;5283;48.876;8.962;2022-10-31T01:04:49;13.43;;;9.07;;
10471;SDS011;5283;48.876;8.962;2022-10-31T01:07:16;13.93;;;9.80;;
10471;SDS011;5283;48.876;8.962;2022-10-31T01:09:42;15.10;;;8.77;;
10471;SDS011;5283;48.876;8.962;2022-10-31T01:12:09;14.67;;;10.03;;
10471;SDS011;5283;48.876;8.962;2022-10-31T01:14:36;25.07;;;9.97;;
10471;SDS011;5283;48.876;8.962;2022-10-31T01:17:02;15.07;;;9.70;;
10471;SDS011;5283;48.876;8.962;2022-10-31T01:19:29;15.17;;;9.90;;
10471;SDS011;5283;48.876;8.962;2022-10-31T01:21:56;17.07;;;10.07;;
10471;SDS011;5283;48.876;8.962;2022-10-31T01:24:22;13.03;;;10.13;;
10471;SDS011;5283;48.876;8.962;2022-10-31T01:26:49;15.77;;;9.93;;
10471;SDS011;5283;48.876;8.962;2022-10-31T01:29:16;15.30;;;8.87;;
10471;SDS011;5283;48.876;8.962;2022-10-31T01:31:43;15.83;;;9.10;;
10471;SDS011;5283;48.876;8.962;2022-10-31T01:34:13;15.77;;;9.90;;
10471;SDS011;5283;48.876;8.962;2022-10-31T01:36:41;15.63;;;9.33;;
10471;SDS011;5283;48.876;8.962;2022-10-31T01:39:09;12.10;;;8.87;;
10471;SDS011;5283;48.876;8.962;2022-10-31T01:41:42;12.50;;;9.27;;
10471;SDS011;5283;48.876;8.962;2022-10-31T01:49:14;15.20;;;9.93;;
10471;SDS011;5283;48.876;8.962;2022-10-31T01:51:48;14.67;;;9.37;;
10471;SDS011;5283;48.876;8.962;2022-10-31T01:54:21;13.77;;;9.83;;
10471;SDS011;5283;48.876;8.962;2022-10-31T01:56:52;12.03;;;9.33;;
10471;SDS011;5283;48.876;8.962;2022-10-31T01:59:20;14.20;;;10.33;;
10471;SDS011;5283;48.876;8.962;2022-10-31T02:01:48;17.53;;;10.20;;
10471;SDS011;5283;48.876;8.962;2022-10-31T02:04:17;16.10;;;9.63;;
10471;SDS011;5283;48.876;8.962;2022-10-31T02:06:46;14.30;;;9.30;;
10471;SDS011;5283;48.876;8.962;2022-10-31T02:09:17;15.47;;;10.80;;
10471;SDS011;5283;48.876;8.962;2022-10-31T02:11:52;16.07;;;10.43;;
10471;SDS011;5283;48.876;8.962;2022-10-31T02:14:26;18.93;;;10.47;;
10471;SDS011;5283;48.876;8.962;2022-10-31T02:16:55;16.47;;;10.17;;
10471;SDS011;5283;48.876;8.962;2022-10-31T02:19:28;15.43;;;10.13;;
10471;SDS011;5283;48.876;8.962;2022-10-31T02:27:51;16.40;;;10.40;;
10471;SDS011;5283;48.876;8.962;2022-10-31T02:33:35;14.73;;;11.50;;
10471;SDS011;5283;48.876;8.962;2022-10-31T02:36:26;13.80;;;10.73;;
10471;SDS011;5283;48.876;8.962;2022-10-31T02:39:01;17.33;;;10.83;;
10471;SDS011;5283;48.876;8.962;2022-10-31T02:41:41;15.40;;;10.63;;
10471;SDS011;5283;48.876;8.962;2022-10-31T02:47:03;14.23;;;9.93;;
10471;SDS011;5283;48.876;8.962;2022-10-31T02:54:52;16.17;;;10.60;;
10471;SDS011;5283;48.876;8.962;2022-10-31T02:57:23;14.30;;;10.37;;
10471;SDS011;5283;48.876;8.962;2022-10-31T02:59:55;14.70;;;10.07;;
10471;SDS011;5283;48.876;8.962;2022-10-31T03:05:08;15.93;;;10.53;;
10471;SDS011;5283;48.876;8.962;2022-10-31T03:07:51;16.17;;;10.90;;
10471;SDS011;5283;48.876;8.962;2022-10-31T03:15:28;18.10;;;10.80;;
10471;SDS011;5283;48.876;8.962;2022-10-31T03:18:08;19.27;;;11.23;;
10471;SDS011;5283;48.876;8.962;2022-10-31T03:20:40;19.43;;;11.27;;
10471;SDS011;5283;48.876;8.962;2022-10-31T03:23:13;12.73;;;10.03;;
10471;SDS011;5283;48.876;8.962;2022-10-31T03:25:42;17.37;;;10.37;;
10471;SDS011;5283;48.876;8.962;2022-10-31T03:28:10;16.93;;;10.50;;
10471;SDS011;5283;48.876;8.962;2022-10-31T03:30:39;15.10;;;10.60;;
10471;SDS011;5283;48.876;8.962;2022-10-31T03:33:16;13.47;;;9.73;;
10471;SDS011;5283;48.876;8.962;2022-10-31T03:35:48;19.07;;;10.40;;
10471;SDS011;5283;48.876;8.962;2022-10-31T03:38:18;15.97;;;10.70;;
10471;SDS011;5283;48.876;8.962;2022-10-31T03:40:46;13.03;;;10.37;;
10471;SDS011;5283;48.876;8.962;2022-10-31T03:43:16;13.07;;;10.27;;
10471;SDS011;5283;48.876;8.962;2022-10-31T03:45:53;15.73;;;10.27;;
10471;SDS011;5283;48.876;8.962;2022-10-31T03:48:20;17.00;;;10.80;;
10471;SDS011;5283;48.876;8.962;2022-10-31T03:56:49;14.13;;;10.57;;
10471;SDS011;5283;48.876;8.962;2022-10-31T03:59:21;14.50;;;10.60;;
10471;SDS011;5283;48.876;8.962;2022-10-31T04:01:56;17.20;;;10.60;;
10471;SDS011;5283;48.876;8.962;2022-10-31T04:04:26;14.00;;;10.27;;
10471;SDS011;5283;48.876;8.962;2022-10-31T04:06:55;13.23;;;10.80;;
10471;SDS011;5283;48.876;8.962;2022-10-31T04:09:25;17.43;;;11.27;;
10471;SDS011;5283;48.876;8.962;2022-10-31T04:11:54;15.47;;;11.30;;
10471;SDS011;5283;48.876;8.962;2022-10-31T04:14:26;17.23;;;11.63;;
10471;SDS011;5283;48.876;8.962;2022-10-31T04:16:55;13.07;;;10.50;;
10471;SDS011;5283;48.876;8.962;2022-10-31T04:19:22;18.70;;;10.80;;
10471;SDS011;5283;48.876;8.962;2022-10-31T04:21:49;16.53;;;11.23;;
10471;SDS011;5283;48.876;8.962;2022-10-31T04:24:15;15.73;;;10.50;;
10471;SDS011;5283;48.876;8.962;2022-10-31T04:26:42;16.20;;;10.60;;
10471;SDS011;5283;48.876;8.962;2022-10-31T04:29:08;17.00;;;10.73;;
10471;SDS011;5283;48.876;8.962;2022-10-31T04:31:35;15.63;;;11.07;;
10471;SDS011;5283;48.876;8.962;2022-10-31T04:34:02;17.07;;;10.20;;
10471;SDS011;5283;48.876;8.962;2022-10-31T04:36:28;13.73;;;10.47;;
10471;SDS011;5283;48.876;8.962;2022-10-31T04:38:55;14.67;;;10.57;;
10471;SDS011;5283;48.876;8.962;2022-10-31T04:41:21;13.90;;;10.27;;
10471;SDS011;5283;48.876;8.962;2022-10-31T04:43:48;15.07;;;10.17;;
10471;SDS011;5283;48.876;8.962;2022-10-31T04:46:15;16.87;;;11.17;;
10471;SDS011;5283;48.876;8.962;2022-10-31T04:48:41;19.30;;;10.90;;
10471;SDS011;5283;48.876;8.962;2022-10-31T04:51:08;17.87;;;10.50;;
10471;SDS011;5283;48.876;8.962;2022-10-31T04:53:35;14.13;;;9.87;;
10471;SDS011;5283;48.876;8.962;2022-10-31T04:56:01;12.67;;;9.77;;
10471;SDS011;5283;48.876;8.962;2022-10-31T04:58:28;16.10;;;9.77;;
10471;SDS011;5283;48.876;8.962;2022-10-31T05:00:55;15.77;;;10.10;;
10471;SDS011;5283;48.876;8.962;2022-10-31T05:03:22;12.93;;;10.10;;
10471;SDS011;5283;48.876;8.962;2022-10-31T05:05:49;13.40;;;9.10;;
10471;SDS011;5283;48.876;8.962;2022-10-31T05:08:16;15.90;;;9.53;;
10471;SDS011;5283;48.876;8.962;2022-10-31T05:10:42;14.80;;;9.73;;
10471;SDS011;5283;48.876;8.962;2022-10-31T05:13:09;18.67;;;9.80;;
10471;SDS011;5283;48.876;8.962;2022-10-31T05:15:36;17.90;;;10.43;;
10471;SDS011;5283;48.876;8.962;2022-10-31T05:18:02;14.83;;;10.33;;
10471;SDS011;5283;48.876;8.962;2022-10-31T05:20:29;16.83;;;9.93;;
10471;SDS011;5283;48.876;8.962;2022-10-31T05:22:56;14.30;;;9.87;;
10471;SDS011;5283;48.876;8.962;2022-10-31T05:25:25;16.00;;;11.00;;
10471;SDS011;5283;48.876;8.962;2022-10-31T05:27:54;13.40;;;9.53;;
10471;SDS011;5283;48.876;8.962;2022-10-31T05:30:22;14.90;;;10.23;;
10471;SDS011;5283;48.876;8.962;2022-10-31T05:32:50;17.37;;;9.50;;
10471;SDS011;5283;48.876;8.962;2022-10-31T05:35:19;17.00;;;9.60;;
10471;SDS011;5283;48.876;8.962;2022-10-31T05:37:52;12.23;;;8.90;;
10471;SDS011;5283;48.876;8.962;2022-10-31T05:40:18;13.30;;;9.00;;
10471;SDS011;5283;48.876;8.962;2022-10-31T05:42:46;14.37;;;8.97;;
10471;SDS011;5283;48.876;8.962;2022-10-31T05:45:15;17.00;;;10.00;;
10471;SDS011;5283;48.876;8.962;2022-10-31T05:47:49;15.30;;;9.63;;
10471;SDS011;5283;48.876;8.962;2022-10-31T05:50:20;15.53;;;9.83;;
10471;SDS011;5283;48.876;8.962;2022-10-31T05:52:47;14.13;;;9.57;;
10471;SDS011;5283;48.876;8.962;2022-10-31T05:55:30;12.67;;;9.17;;
10471;SDS011;5283;48.876;8.962;2022-10-31T05:57:57;14.27;;;9.23;;
10471;SDS011;5283;48.876;8.962;2022-10-31T06:00:25;14.87;;;9.37;;
10471;SDS011;5283;48.876;8.962;2022-10-31T06:03:02;17.27;;;10.07;;
10471;SDS011;5283;48.876;8.962;2022-10-31T06:05:31;17.63;;;10.63;;
10471;SDS011;5283;48.876;8.962;2022-10-31T06:07:58;15.30;;;9.83;;
10471;SDS011;5283;48.876;8.962;2022-10-31T06:10:25;14.53;;;9.97;;
10471;SDS011;5283;48.876;8.962;2022-10-31T06:12:52;17.40;;;10.13;;
10471;SDS011;5283;48.876;8.962;2022-10-31T06:15:19;16.60;;;10.80;;
10471;SDS011;5283;48.876;8.962;2022-10-31T06:17:57;14.17;;;10.73;;
10471;SDS011;5283;48.876;8.962;2022-10-31T06:20:30;14.63;;;10.20;;
10471;SDS011;5283;48.876;8.962;2022-10-31T06:22:58;14.77;;;10.10;;
10471;SDS011;5283;48.876;8.962;2022-10-31T06:25:25;13.97;;;9.77;;
10471;SDS011;5283;48.876;8.962;2022-10-31T06:27:52;22.60;;;11.17;;
10471;SDS011;5283;48.876;8.962;2022-10-31T06:30:19;15.50;;;11.57;;
10471;SDS011;5283;48.876;8.962;2022-10-31T06:32:46;15.47;;;11.77;;
10471;SDS011;5283;48.876;8.962;2022-10-31T06:35:12;11.63;;;9.63;;
10471;SDS011;5283;48.876;8.962;2022-10-31T06:37:39;17.37;;;10.07;;
10471;SDS011;5283;48.876;8.962;2022-10-31T06:40:07;14.50;;;10.33;;
10471;SDS011;5283;48.876;8.962;2022-10-31T06:42:34;17.37;;;10.03;;
10471;SDS011;5283;48.876;8.962;2022-10-31T06:45:00;16.57;;;10.53;;
10471;SDS011;5283;48.876;8.962;2022-10-31T06:47:27;16.50;;;10.93;;
10471;SDS011;5283;48.876;8.962;2022-10-31T06:49:54;16.77;;;10.67;;
10471;SDS011;5283;48.876;8.962;2022-10-31T06:52:20;13.00;;;9.90;;
10471;SDS011;5283;48.876;8.962;2022-10-31T06:54:49;14.87;;;10.37;;
10471;SDS011;5283;48.876;8.962;2022-10-31T06:57:16;18.10;;;11.23;;
10471;SDS011;5283;48.876;8.962;2022-10-31T06:59:42;16.47;;;10.60;;
10471;SDS011;5283;48.876;8.962;2022-10-31T07:02:09;15.20;;;10.43;;
10471;SDS011;5283;48.876;8.962;2022-10-31T07:04:36;16.40;;;11.03;;
10471;SDS011;5283;48.876;8.962;2022-10-31T07:07:03;12.03;;;9.67;;
10471;SDS011;5283;48.876;8.962;2022-10-31T07:09:30;15.30;;;9.90;;
10471;SDS011;5283;48.876;8.962;2022-10-31T07:11:57;13.43;;;9.83;;
10471;SDS011;5283;48.876;8.962;2022-10-31T07:14:23;14.17;;;9.77;;
10471;SDS011;5283;48.876;8.962;2022-10-31T07:16:50;13.77;;;9.40;;
10471;SDS011;5283;48.876;8.962;2022-10-31T07:19:17;12.53;;;9.23;;
10471;SDS011;5283;48.876;8.962;2022-10-31T07:21:43;17.20;;;10.00;;
10471;SDS011;5283;48.876;8.962;2022-10-31T07:24:10;15.00;;;9.67;;
10471;SDS011;5283;48.876;8.962;2022-10-31T07:26:37;16.70;;;10.43;;
10471;SDS011;5283;48.876;8.962;2022-10-31T07:29:03;15.10;;;10.70;;
10471;SDS011;5283;48.876;8.962;2022-10-31T07:31:30;17.30;;;11.37;;
10471;SDS011;5283;48.876;8.962;2022-10-31T07:33:57;15.33;;;9.57;;
10471;SDS011;5283;48.876;8.962;2022-10-31T07:36:23;13.90;;;9.63;;
10471;SDS011;5283;48.876;8.962;2022-10-31T07:38:50;16.47;;;11.83;;
10471;SDS011;5283;48.876;8.962;2022-10-31T07:41:17;12.57;;;9.57;;
10471;SDS011;5283;48.876;8.962;2022-10-31T07:43:43;18.07;;;15.10;;
10471;SDS011;5283;48.876;8.962;2022-10-31T07:46:10;27.90;;;23.60;;
10471;SDS011;5283;48.876;8.962;2022-10-31T07:48:37;16.93;;;13.27;;
10471;SDS011;5283;48.876;8.962;2022-10-31T07:51:04;13.63;;;10.40;;
10471;SDS011;5283;48.876;8.962;2022-10-31T07:53:32;14.70;;;9.93;;
10471;SDS011;5283;48.876;8.962;2022-10-31T07:55:59;14.77;;;9.43;;
10471;SDS011;5283;48.876;8.962;2022-10-31T07:58:26;25.07;;;11.30;;
10471;SDS011;5283;48.876;8.962;2022-10-31T08:00:52;27.47;;;10.53;;
10471;SDS011;5283;48.876;8.962;2022-10-31T08:03:19;18.27;;;10.50;;
10471;SDS011;5283;48.876;8.962;2022-10-31T08:05:46;15.87;;;9.17;;
10471;SDS011;5283;48.876;8.962;2022-10-31T08:08:13;14.50;;;9.40;;
10471;SDS011;5283;48.876;8.962;2022-10-31T08:10:40;11.77;;;8.90;;
10471;SDS011;5283;48.876;8.962;2022-10-31T08:13:11;16.77;;;8.73;;
10471;SDS011;5283;48.876;8.962;2022-10-31T08:15:38;12.97;;;9.10;;
10471;SDS011;5283;48.876;8.962;2022-10-31T08:18:11;10.83;;;8.60;;
10471;SDS011;5283;48.876;8.962;2022-10-31T08:20:40;13.47;;;9.07;;
10471;SDS011;5283;48.876;8.962;2022-10-31T08:23:08;15.73;;;9.10;;
10471;SDS011;5283;48.876;8.962;2022-10-31T08:25:35;12.63;;;8.30;;
10471;SDS011;5283;48.876;8.962;2022-10-31T08:28:03;11.17;;;8.03;;
10471;SDS011;5283;48.876;8.962;2022-10-31T08:30:31;10.43;;;7.67;;
10471;SDS011;5283;48.876;8.962;2022-10-31T08:33:05;10.20;;;7.47;;
10471;SDS011;5283;48.876;8.962;2022-10-31T08:35:39;9.20;;;7.00;;
10471;SDS011;5283;48.876;8.962;2022-10-31T08:38:08;13.13;;;6.80;;
10471;SDS011;5283;48.876;8.962;2022-10-31T08:40:38;8.70;;;6.10;;
10471;SDS011;5283;48.876;8.962;2022-10-31T08:43:06;10.50;;;6.50;;
10471;SDS011;5283;48.876;8.962;2022-10-31T08:45:40;11.87;;;8.63;;
10471;SDS011;5283;48.876;8.962;2022-10-31T08:48:09;14.83;;;10.53;;
10471;SDS011;5283;48.876;8.962;2022-10-31T08:50:40;14.90;;;12.10;;
10471;SDS011;5283;48.876;8.962;2022-10-31T08:53:09;13.97;;;10.97;;
10471;SDS011;5283;48.876;8.962;2022-10-31T08:55:38;13.53;;;8.90;;
10471;SDS011;5283;48.876;8.962;2022-10-31T08:58:07;10.13;;;7.67;;
10471;SDS011;5283;48.876;8.962;2022-10-31T09:00:37;9.60;;;7.40;;
10471;SDS011;5283;48.876;8.962;2022-10-31T09:03:05;10.30;;;8.10;;
10471;SDS011;5283;48.876;8.962;2022-10-31T09:05:38;10.07;;;7.20;;
10471;SDS011;5283;48.876;8.962;2022-10-31T09:08:05;12.23;;;6.77;;
10471;SDS011;5283;48.876;8.962;2022-10-31T09:10:36;8.97;;;5.90;;
10471;SDS011;5283;48.876;8.962;2022-10-31T09:13:08;8.87;;;5.50;;
10471;SDS011;5283;48.876;8.962;2022-10-31T09:15:37;6.70;;;4.53;;
10471;SDS011;5283;48.876;8.962;2022-10-31T09:18:07;9.03;;;5.20;;
10471;SDS011;5283;48.876;8.962;2022-10-31T09:20:35;9.83;;;5.10;;
10471;SDS011;5283;48.876;8.962;2022-10-31T09:23:06;8.10;;;5.50;;
10471;SDS011;5283;48.876;8.962;2022-10-31T09:25:37;8.73;;;5.10;;
10471;SDS011;5283;48.876;8.962;2022-10-31T09:28:05;9.40;;;5.63;;
10471;SDS011;5283;48.876;8.962;2022-10-31T09:30:33;7.80;;;5.87;;
10471;SDS011;5283;48.876;8.962;2022-10-31T09:33:05;8.27;;;6.40;;
10471;SDS011;5283;48.876;8.962;2022-10-31T09:35:33;8.07;;;6.53;;
10471;SDS011;5283;48.876;8.962;2022-10-31T09:38:04;9.50;;;6.17;;
10471;SDS011;5283;48.876;8.962;2022-10-31T09:40:42;8.93;;;5.63;;
10471;SDS011;5283;48.876;8.962;2022-10-31T09:51:10;8.17;;;5.00;;
10471;SDS011;5283;48.876;8.962;2022-10-31T09:56:23;9.00;;;5.37;;
10471;SDS011;5283;48.876;8.962;2022-10-31T09:58:53;8.57;;;5.40;;
10471;SDS011;5283;48.876;8.962;2022-10-31T10:04:01;9.83;;;5.43;;
10471;SDS011;5283;48.876;8.962;2022-10-31T10:06:45;10.60;;;5.47;;
10471;SDS011;5283;48.876;8.962;2022-10-31T10:09:15;9.20;;;5.23;;
10471;SDS011;5283;48.876;8.962;2022-10-31T10:12:31;9.70;;;5.27;;
10471;SDS011;5283;48.876;8.962;2022-10-31T10:25:23;9.33;;;5.07;;
10471;SDS011;5283;48.876;8.962;2022-10-31T10:31:12;9.13;;;4.67;;
10471;SDS011;5283;48.876;8.962;2022-10-31T10:33:44;7.07;;;4.43;;
10471;SDS011;5283;48.876;8.962;2022-10-31T10:36:32;7.43;;;5.13;;
10471;SDS011;5283;48.876;8.962;2022-10-31T10:39:08;10.63;;;4.87;;
10471;SDS011;5283;48.876;8.962;2022-10-31T10:41:43;12.13;;;5.13;;
10471;SDS011;5283;48.876;8.962;2022-10-31T10:44:13;11.90;;;5.50;;
10471;SDS011;5283;48.876;8.962;2022-10-31T10:46:42;9.50;;;5.03;;
10471;SDS011;5283;48.876;8.962;2022-10-31T10:49:44;9.23;;;5.10;;
10471;SDS011;5283;48.876;8.962;2022-10-31T10:52:34;12.47;;;4.90;;
10471;SDS011;5283;48.876;8.962;2022-10-31T10:58:11;12.53;;;5.47;;
10471;SDS011;5283;48.876;8.962;2022-10-31T11:00:38;14.53;;;5.37;;
10471;SDS011;5283;48.876;8.962;2022-10-31T11:03:08;14.60;;;5.67;;
10471;SDS011;5283;48.876;8.962;2022-10-31T11:05:42;16.00;;;5.97;;
10471;SDS011;5283;48.876;8.962;2022-10-31T11:08:31;10.77;;;6.57;;
10471;SDS011;5283;48.876;8.962;2022-10-31T11:11:42;12.37;;;6.50;;
10471;SDS011;5283;48.876;8.962;2022-10-31T11:13:56;9.50;;;5.90;;
10471;SDS011;5283;48.876;8.962;2022-10-31T11:16:31;9.97;;;5.43;;
10471;SDS011;5283;48.876;8.962;2022-10-31T11:19:06;11.60;;;5.43;;
10471;SDS011;5283;48.876;8.962;2022-10-31T11:21:38;10.73;;;5.33;;
10471;SDS011;5283;48.876;8.962;2022-10-31T11:26:35;10.63;;;5.93;;
10471;SDS011;5283;48.876;8.962;2022-10-31T11:29:09;11.23;;;5.93;;
10471;SDS011;5283;48.876;8.962;2022-10-31T11:31:40;13.97;;;5.67;;
10471;SDS011;5283;48.876;8.962;2022-10-31T11:34:51;11.03;;;5.70;;
10471;SDS011;5283;48.876;8.962;2022-10-31T11:37:09;10.67;;;5.90;;
10471;SDS011;5283;48.876;8.962;2022-10-31T11:39:41;12.23;;;5.60;;
10471;SDS011;5283;48.876;8.962;2022-10-31T11:42:09;9.40;;;5.50;;
10471;SDS011;5283;48.876;8.962;2022-10-31T11:44:36;6.97;;;5.63;;
10471;SDS011;5283;48.876;8.962;2022-10-31T11:47:09;7.07;;;5.37;;
10471;SDS011;5283;48.876;8.962;2022-10-31T11:49:43;11.87;;;6.00;;
10471;SDS011;5283;48.876;8.962;2022-10-31T11:52:16;9.97;;;5.60;;
10471;SDS011;5283;48.876;8.962;2022-10-31T12:00:25;11.13;;;5.53;;
10471;SDS011;5283;48.876;8.962;2022-10-31T12:05:59;9.07;;;5.27;;
10471;SDS011;5283;48.876;8.962;2022-10-31T12:08:34;9.33;;;5.30;;
10471;SDS011;5283;48.876;8.962;2022-10-31T12:14:07;9.03;;;5.50;;
10471;SDS011;5283;48.876;8.962;2022-10-31T12:16:48;8.23;;;5.70;;
10471;SDS011;5283;48.876;8.962;2022-10-31T12:19:51;10.63;;;5.73;;
10471;SDS011;5283;48.876;8.962;2022-10-31T12:25:28;10.50;;;5.30;;
10471;SDS011;5283;48.876;8.962;2022-10-31T12:28:02;12.50;;;5.90;;
10471;SDS011;5283;48.876;8.962;2022-10-31T12:33:32;10.13;;;6.13;;
10471;SDS011;5283;48.876;8.962;2022-10-31T12:45:08;10.97;;;6.20;;
10471;SDS011;5283;48.876;8.962;2022-10-31T12:47:50;8.27;;;6.13;;
10471;SDS011;5283;48.876;8.962;2022-10-31T12:50:44;11.30;;;6.57;;
10471;SDS011;5283;48.876;8.962;2022-10-31T12:53:26;9.87;;;6.27;;
10471;SDS011;5283;48.876;8.962;2022-10-31T12:56:04;9.23;;;6.27;;
10471;SDS011;5283;48.876;8.962;2022-10-31T12:58:34;9.73;;;6.10;;
10471;SDS011;5283;48.876;8.962;2022-10-31T13:01:14;12.90;;;6.20;;
10471;SDS011;5283;48.876;8.962;2022-10-31T13:03:58;9.77;;;6.40;;
10471;SDS011;5283;48.876;8.962;2022-10-31T13:06:50;13.33;;;6.50;;
10471;SDS011;5283;48.876;8.962;2022-10-31T13:09:32;10.20;;;5.97;;
10471;SDS011;5283;48.876;8.962;2022-10-31T13:12:10;9.67;;;7.03;;
10471;SDS011;5283;48.876;8.962;2022-10-31T13:14:40;9.53;;;6.70;;
10471;SDS011;5283;48.876;8.962;2022-10-31T13:17:18;11.67;;;6.30;;
10471;SDS011;5283;48.876;8.962;2022-10-31T13:19:51;10.50;;;6.67;;
10471;SDS011;5283;48.876;8.962;2022-10-31T13:22:25;12.43;;;7.40;;
10471;SDS011;5283;48.876;8.962;2022-10-31T13:27:36;15.30;;;13.47;;
10471;SDS011;5283;48.876;8.962;2022-10-31T13:30:33;12.60;;;8.03;;
10471;SDS011;5283;48.876;8.962;2022-10-31T13:38:39;11.47;;;7.07;;
10471;SDS011;5283;48.876;8.962;2022-10-31T13:41:27;10.37;;;6.97;;
10471;SDS011;5283;48.876;8.962;2022-10-31T13:46:53;13.33;;;11.50;;
10471;SDS011;5283;48.876;8.962;2022-10-31T13:54:40;10.23;;;5.73;;
10471;SDS011;5283;48.876;8.962;2022-10-31T13:57:57;12.63;;;5.80;;
10471;SDS011;5283;48.876;8.962;2022-10-31T14:00:21;10.33;;;5.70;;
10471;SDS011;5283;48.876;8.962;2022-10-31T14:02:52;8.53;;;6.27;;
10471;SDS011;5283;48.876;8.962;2022-10-31T14:05:28;12.87;;;6.20;;
10471;SDS011;5283;48.876;8.962;2022-10-31T14:07:59;10.57;;;7.00;;
10471;SDS011;5283;48.876;8.962;2022-10-31T14:10:36;13.10;;;6.47;;
10471;SDS011;5283;48.876;8.962;2022-10-31T14:13:08;11.90;;;7.03;;
10471;SDS011;5283;48.876;8.962;2022-10-31T14:15:43;9.93;;;7.10;;
10471;SDS011;5283;48.876;8.962;2022-10-31T14:18:24;9.37;;;6.27;;
10471;SDS011;5283;48.876;8.962;2022-10-31T14:20:56;17.90;;;7.33;;
10471;SDS011;5283;48.876;8.962;2022-10-31T14:26:17;10.90;;;6.80;;
10471;SDS011;5283;48.876;8.962;2022-10-31T14:28:48;14.43;;;7.57;;
10471;SDS011;5283;48.876;8.962;2022-10-31T14:31:32;9.87;;;7.00;;
10471;SDS011;5283;48.876;8.962;2022-10-31T14:36:41;13.87;;;7.47;;
10471;SDS011;5283;48.876;8.962;2022-10-31T14:40:04;9.97;;;7.13;;
10471;SDS011;5283;48.876;8.962;2022-10-31T14:42:31;12.10;;;7.43;;
10471;SDS011;5283;48.876;8.962;2022-10-31T14:48:43;14.10;;;7.80;;
10471;SDS011;5283;48.876;8.962;2022-10-31T14:51:33;11.80;;;7.60;;
10471;SDS011;5283;48.876;8.962;2022-10-31T14:54:06;15.77;;;8.67;;
10471;SDS011;5283;48.876;8.962;2022-10-31T14:56:39;13.87;;;7.53;;
10471;SDS011;5283;48.876;8.962;2022-10-31T14:59:14;11.67;;;7.97;;
10471;SDS011;5283;48.876;8.962;2022-10-31T15:01:52;14.13;;;7.93;;
10471;SDS011;5283;48.876;8.962;2022-10-31T15:04:26;16.37;;;8.00;;
10471;SDS011;5283;48.876;8.962;2022-10-31T15:06:59;13.87;;;8.20;;
10471;SDS011;5283;48.876;8.962;2022-10-31T15:09:36;17.27;;;8.60;;
10471;SDS011;5283;48.876;8.962;2022-10-31T15:12:21;11.70;;;8.40;;
10471;SDS011;5283;48.876;8.962;2022-10-31T15:14:50;15.10;;;9.13;;
10471;SDS011;5283;48.876;8.962;2022-10-31T15:17:16;14.23;;;9.07;;
10471;SDS011;5283;48.876;8.962;2022-10-31T15:19:43;13.03;;;8.80;;
10471;SDS011;5283;48.876;8.962;2022-10-31T15:22:13;14.10;;;9.13;;
10471;SDS011;5283;48.876;8.962;2022-10-31T15:24:42;13.47;;;8.97;;
10471;SDS011;5283;48.876;8.962;2022-10-31T15:27:14;16.20;;;9.83;;
10471;SDS011;5283;48.876;8.962;2022-10-31T15:29:47;12.60;;;9.53;;
10471;SDS011;5283;48.876;8.962;2022-10-31T15:32:19;16.20;;;10.30;;
10471;SDS011;5283;48.876;8.962;2022-10-31T15:34:49;18.30;;;10.63;;
10471;SDS011;5283;48.876;8.962;2022-10-31T15:37:18;16.93;;;11.47;;
10471;SDS011;5283;48.876;8.962;2022-10-31T15:39:46;16.87;;;11.60;;
10471;SDS011;5283;48.876;8.962;2022-10-31T15:42:17;19.20;;;11.60;;
10471;SDS011;5283;48.876;8.962;2022-10-31T15:44:46;17.20;;;11.40;;
10471;SDS011;5283;48.876;8.962;2022-10-31T15:47:34;15.67;;;10.97;;
10471;SDS011;5283;48.876;8.962;2022-10-31T15:50:02;15.53;;;11.10;;
10471;SDS011;5283;48.876;8.962;2022-10-31T15:52:36;13.13;;;10.67;;
10471;SDS011;5283;48.876;8.962;2022-10-31T15:57:40;15.27;;;11.00;;
10471;SDS011;5283;48.876;8.962;2022-10-31T16:00:29;17.70;;;12.00;;
10471;SDS011;5283;48.876;8.962;2022-10-31T16:03:40;16.23;;;12.10;;
10471;SDS011;5283;48.876;8.962;2022-10-31T16:05:58;18.67;;;12.00;;
10471;SDS011;5283;48.876;8.962;2022-10-31T16:13:34;16.87;;;10.37;;
10471;SDS011;5283;48.876;8.962;2022-10-31T16:16:03;14.37;;;9.80;;
10471;SDS011;5283;48.876;8.962;2022-10-31T16:18:59;16.03;;;9.23;;
10471;SDS011;5283;48.876;8.962;2022-10-31T16:21:32;19.00;;;12.27;;
10471;SDS011;5283;48.876;8.962;2022-10-31T16:24:03;15.37;;;11.30;;
10471;SDS011;5283;48.876;8.962;2022-10-31T16:26:39;18.93;;;10.13;;
10471;SDS011;5283;48.876;8.962;2022-10-31T16:29:22;14.73;;;10.23;;
10471;SDS011;5283;48.876;8.962;2022-10-31T16:32:25;16.57;;;9.13;;
10471;SDS011;5283;48.876;8.962;2022-10-31T16:34:59;15.30;;;10.27;;
10471;SDS011;5283;48.876;8.962;2022-10-31T16:37:28;16.17;;;11.40;;
10471;SDS011;5283;48.876;8.962;2022-10-31T16:39:55;17.47;;;11.47;;
10471;SDS011;5283;48.876;8.962;2022-10-31T16:42:22;17.57;;;11.90;;
10471;SDS011;5283;48.876;8.962;2022-10-31T16:44:48;18.03;;;12.17;;
10471;SDS011;5283;48.876;8.962;2022-10-31T16:47:16;15.43;;;11.47;;
10471;SDS011;5283;48.876;8.962;2022-10-31T16:49:44;15.60;;;11.33;;
10471;SDS011;5283;48.876;8.962;2022-10-31T16:52:14;13.97;;;10.50;;
10471;SDS011;5283;48.876;8.962;2022-10-31T16:54:42;15.40;;;12.00;;
10471;SDS011;5283;48.876;8.962;2022-10-31T16:57:12;16.67;;;13.50;;
10471;SDS011;5283;48.876;8.962;2022-10-31T16:59:52;21.87;;;14.30;;
10471;SDS011;5283;48.876;8.962;2022-10-31T17:02:19;22.17;;;14.83;;
10471;SDS011;5283;48.876;8.962;2022-10-31T17:04:47;19.20;;;14.83;;
10471;SDS011;5283;48.876;8.962;2022-10-31T17:07:14;18.87;;;14.80;;
10471;SDS011;5283;48.876;8.962;2022-10-31T17:09:41;22.30;;;15.67;;
10471;SDS011;5283;48.876;8.962;2022-10-31T17:12:11;24.10;;;15.50;;
10471;SDS011;5283;48.876;8.962;2022-10-31T17:14:43;23.27;;;15.87;;
10471;SDS011;5283;48.876;8.962;2022-10-31T17:17:14;27.00;;;17.93;;